Time;durP1;ratioP1;P1;durP2;ratioP2;P2;SDS_P1;SDS_P2;PMS_P1;PMS_P2;Temp;Humidity;BMP_temperature;BMP_pressure;BME280_temperature;BME280_humidity;BME280_pressure;Samples;Min_cycle;Max_cycle;Signal;HPM_P1;HPM_P2
2023/03/22 00:00:54;;;;;;;6.35;3.13;;;9.90;99.90;;;;;;5053459;28;20662;-58
2023/03/22 00:03:21;;;;;;;6.20;2.53;;;9.90;99.90;;;;;;5053246;28;20246;-59
2023/03/22 00:05:46;;;;;;;7.57;3.33;;;9.90;99.90;;;;;;5053120;28;20172;-58
2023/03/22 00:08:12;;;;;;;7.90;3.38;;;9.90;99.90;;;;;;5053322;28;20241;-58
2023/03/22 00:10:39;;;;;;;9.43;3.55;;;10.00;99.90;;;;;;5053425;28;20179;-58
2023/03/22 00:13:07;;;;;;;6.55;3.47;;;10.00;99.90;;;;;;5052053;28;20176;-58
2023/03/22 00:15:34;;;;;;;5.93;3.40;;;10.00;99.90;;;;;;5053199;28;20182;-59
2023/03/22 00:18:01;;;;;;;7.43;4.15;;;10.00;99.90;;;;;;5053362;28;20532;-59
2023/03/22 00:20:29;;;;;;;8.43;3.85;;;10.00;99.90;;;;;;5053254;28;20175;-58
2023/03/22 00:22:56;;;;;;;8.50;4.70;;;10.00;99.90;;;;;;5052870;28;20658;-57
2023/03/22 00:25:22;;;;;;;7.68;5.07;;;9.90;99.90;;;;;;5053156;28;20168;-58
2023/03/22 00:27:47;;;;;;;11.10;5.88;;;10.00;99.90;;;;;;5052909;28;20203;-58
2023/03/22 00:30:14;;;;;;;10.48;6.03;;;10.00;99.90;;;;;;5052908;28;20182;-58
2023/03/22 00:32:41;;;;;;;8.50;5.80;;;10.00;99.90;;;;;;5053232;28;20179;-58
2023/03/22 00:35:08;;;;;;;8.43;6.43;;;10.00;99.90;;;;;;5053089;28;20183;-58
2023/03/22 00:37:37;;;;;;;12.30;7.95;;;10.10;99.90;;;;;;5052855;28;20536;-59
2023/03/22 00:40:08;;;;;;;11.05;7.35;;;10.10;99.90;;;;;;5052998;28;20179;-58
2023/03/22 00:42:38;;;;;;;9.15;8.02;;;10.10;99.90;;;;;;5052799;28;20182;-59
2023/03/22 00:45:07;;;;;;;12.82;8.80;;;10.10;99.90;;;;;;5052832;28;20175;-58
2023/03/22 00:47:32;;;;;;;10.40;9.02;;;10.10;99.90;;;;;;5053194;28;20168;-59
2023/03/22 00:49:58;;;;;;;10.82;9.27;;;10.10;99.90;;;;;;5052875;28;20276;-59
2023/03/22 00:52:24;;;;;;;13.27;9.35;;;10.20;99.90;;;;;;5052745;28;20181;-58
2023/03/22 00:54:50;;;;;;;12.43;10.57;;;10.20;99.90;;;;;;5052805;28;20628;-58
2023/03/22 00:57:16;;;;;;;14.55;11.30;;;10.20;99.90;;;;;;5052601;28;20168;-58
2023/03/22 00:59:42;;;;;;;13.68;11.50;;;10.20;99.90;;;;;;5052945;28;20180;-58
2023/03/22 01:02:12;;;;;;;16.17;12.18;;;10.30;99.90;;;;;;5052814;28;20182;-59
2023/03/22 01:04:45;;;;;;;14.90;12.15;;;10.40;99.90;;;;;;5052864;28;20180;-59
2023/03/22 01:07:16;;;;;;;16.02;12.20;;;10.40;99.90;;;;;;5052737;28;20225;-59
2023/03/22 01:09:45;;;;;;;15.55;11.85;;;10.50;99.90;;;;;;5052539;28;20211;-58
2023/03/22 01:12:11;;;;;;;13.95;11.15;;;10.50;99.90;;;;;;5052814;28;20180;-58
2023/03/22 01:14:37;;;;;;;14.55;11.98;;;10.60;99.90;;;;;;5053102;28;20237;-59
2023/03/22 01:17:03;;;;;;;14.07;11.95;;;10.70;99.90;;;;;;5053753;28;20172;-58
2023/03/22 01:19:29;;;;;;;15.73;12.27;;;10.80;99.90;;;;;;5056456;28;20183;-58
2023/03/22 01:21:56;;;;;;;14.73;12.23;;;10.80;99.90;;;;;;5056315;28;20194;-58
2023/03/22 01:24:22;;;;;;;14.23;12.27;;;10.80;99.90;;;;;;5056425;28;20230;-58
2023/03/22 01:26:48;;;;;;;17.70;12.13;;;10.90;99.90;;;;;;5056719;28;20172;-58
2023/03/22 01:29:15;;;;;;;12.27;10.85;;;10.90;99.90;;;;;;5056253;28;20318;-58
2023/03/22 01:31:41;;;;;;;12.85;10.73;;;10.90;99.90;;;;;;5056258;28;20191;-58
2023/03/22 01:34:07;;;;;;;13.23;10.98;;;11.00;99.90;;;;;;5056000;28;20195;-58
2023/03/22 01:36:33;;;;;;;11.63;10.40;;;11.00;99.90;;;;;;5056085;28;20264;-58
2023/03/22 01:38:59;;;;;;;11.65;9.95;;;11.00;99.90;;;;;;5055898;28;20180;-58
2023/03/22 01:41:24;;;;;;;13.13;10.30;;;11.10;99.90;;;;;;5056233;28;20640;-58
2023/03/22 01:44:12;;;;;;;13.20;10.32;;;11.00;99.90;;;;;;5056075;28;20568;-58
2023/03/22 01:46:39;;;;;;;14.40;9.63;;;11.00;99.90;;;;;;5056071;28;20189;-58
2023/03/22 01:49:10;;;;;;;12.73;9.50;;;10.90;99.90;;;;;;5055746;28;20195;-58
2023/03/22 01:51:38;;;;;;;13.25;9.40;;;11.00;99.90;;;;;;5055787;28;20258;-58
2023/03/22 01:54:08;;;;;;;10.63;9.63;;;11.00;99.90;;;;;;5055944;28;20186;-57
2023/03/22 01:56:37;;;;;;;11.50;9.52;;;11.00;99.90;;;;;;5055897;28;20266;-58
2023/03/22 01:59:03;;;;;;;13.15;9.95;;;10.90;99.90;;;;;;5055630;28;20172;-58
2023/03/22 02:01:30;;;;;;;9.98;8.55;;;11.00;99.90;;;;;;5055705;28;20171;-58
2023/03/22 02:04:18;;;;;;;13.75;9.27;;;11.10;99.90;;;;;;5055397;28;20206;-59
2023/03/22 02:06:46;;;;;;;12.07;8.73;;;11.10;99.90;;;;;;5055686;28;20262;-59
2023/03/22 02:09:12;;;;;;;10.50;8.38;;;11.10;99.90;;;;;;5055717;28;20209;-58
2023/03/22 02:11:45;;;;;;;10.40;8.65;;;11.10;99.90;;;;;;5055394;28;20270;-58
2023/03/22 02:14:21;;;;;;;9.98;7.97;;;11.10;99.90;;;;;;5055377;28;20171;-58
2023/03/22 02:17:05;;;;;;;11.68;7.72;;;11.10;99.90;;;;;;5055323;28;20269;-58
2023/03/22 02:19:51;;;;;;;9.95;8.32;;;11.00;99.90;;;;;;5055379;28;20175;-58
2023/03/22 02:22:56;;;;;;;10.18;8.13;;;11.00;99.90;;;;;;5055310;28;20258;-58
2023/03/22 02:25:40;;;;;;;10.30;7.63;;;11.10;99.90;;;;;;5055263;28;20187;-58
2023/03/22 02:28:44;;;;;;;10.82;7.63;;;11.10;99.90;;;;;;5054831;28;20199;-58
2023/03/22 02:31:39;;;;;;;9.93;7.22;;;11.10;99.90;;;;;;5054887;28;20198;-58
2023/03/22 02:34:20;;;;;;;11.07;6.97;;;11.10;99.90;;;;;;5055088;28;20178;-58
2023/03/22 02:37:19;;;;;;;9.15;6.43;;;11.10;99.90;;;;;;5054934;28;20179;-58
2023/03/22 02:39:54;;;;;;;8.27;6.30;;;11.10;99.90;;;;;;5055072;28;20167;-59
2023/03/22 02:42:35;;;;;;;9.95;6.47;;;11.10;99.90;;;;;;5055038;28;20162;-59
2023/03/22 02:45:15;;;;;;;10.95;5.97;;;11.10;99.90;;;;;;5054881;28;20219;-58
2023/03/22 02:47:56;;;;;;;10.65;7.13;;;11.00;99.90;;;;;;5054577;28;20265;-58
2023/03/22 02:50:27;;;;;;;8.43;6.40;;;11.10;99.90;;;;;;5055092;28;20229;-58
2023/03/22 02:53:19;;;;;;;10.07;5.93;;;11.00;99.90;;;;;;5054778;28;20187;-58
2023/03/22 02:55:51;;;;;;;9.30;6.13;;;11.00;99.90;;;;;;5054773;28;20168;-58
2023/03/22 02:58:33;;;;;;;8.90;5.82;;;11.00;99.90;;;;;;5054464;28;20202;-57
2023/03/22 03:01:04;;;;;;;9.55;6.25;;;11.10;99.90;;;;;;5054674;28;20205;-58
2023/03/22 03:03:31;;;;;;;9.77;5.95;;;11.00;99.90;;;;;;5054547;28;20680;-57
2023/03/22 03:06:02;;;;;;;9.60;5.93;;;11.00;99.90;;;;;;5054383;28;20652;-58
2023/03/22 03:08:29;;;;;;;10.55;6.22;;;11.00;99.90;;;;;;5054253;28;20191;-58
2023/03/22 03:10:55;;;;;;;9.98;5.90;;;11.00;99.90;;;;;;5054496;28;20183;-58
2023/03/22 03:13:21;;;;;;;10.40;6.07;;;10.80;99.90;;;;;;5054264;28;20175;-58
2023/03/22 03:15:56;;;;;;;8.30;5.93;;;10.80;99.90;;;;;;5054555;28;20202;-58
2023/03/22 03:18:50;;;;;;;12.02;5.90;;;10.80;99.90;;;;;;5054533;28;20174;-58
2023/03/22 03:21:16;;;;;;;10.88;5.82;;;10.80;99.90;;;;;;5054049;28;20198;-58
2023/03/22 03:24:06;;;;;;;10.50;5.63;;;10.90;99.90;;;;;;5053796;28;20234;-58
2023/03/22 03:26:49;;;;;;;7.22;5.28;;;10.80;99.90;;;;;;5054199;28;20172;-59
2023/03/22 03:29:24;;;;;;;12.93;5.40;;;10.70;99.90;;;;;;5053863;28;20273;-58
2023/03/22 03:32:07;;;;;;;7.82;4.60;;;10.70;99.90;;;;;;5053804;28;20667;-58
2023/03/22 03:34:58;;;;;;;10.48;5.18;;;10.80;99.90;;;;;;5054041;28;20176;-58
2023/03/22 03:37:34;;;;;;;11.18;4.78;;;10.70;99.90;;;;;;5054093;28;20528;-58
2023/03/22 03:40:08;;;;;;;12.15;5.05;;;10.70;99.90;;;;;;5053042;28;20201;-58
2023/03/22 03:42:37;;;;;;;11.75;5.10;;;10.70;99.90;;;;;;5053939;28;20171;-58
2023/03/22 03:45:04;;;;;;;10.35;4.88;;;10.70;99.90;;;;;;5053800;28;20183;-58
2023/03/22 03:47:31;;;;;;;11.75;4.57;;;10.70;99.90;;;;;;5052366;28;20171;-58
2023/03/22 03:49:56;;;;;;;11.15;4.93;;;10.70;99.90;;;;;;5053507;28;20241;-59
2023/03/22 03:52:24;;;;;;;9.15;4.60;;;10.80;99.90;;;;;;5053486;28;20179;-58
2023/03/22 03:54:51;;;;;;;8.32;4.43;;;10.80;99.90;;;;;;5053611;28;20514;-58
2023/03/22 03:57:17;;;;;;;9.25;4.60;;;10.80;99.90;;;;;;5053537;28;20266;-58
2023/03/22 03:59:42;;;;;;;11.95;4.75;;;10.80;99.90;;;;;;5053489;28;20258;-58
2023/03/22 04:02:08;;;;;;;8.38;4.10;;;10.80;99.90;;;;;;5053432;28;20220;-59
2023/03/22 04:04:34;;;;;;;7.93;3.90;;;10.80;99.90;;;;;;5053326;28;20179;-58
2023/03/22 04:07:03;;;;;;;24.00;5.43;;;10.80;99.90;;;;;;5053221;28;20179;-58
2023/03/22 04:09:35;;;;;;;9.48;4.03;;;10.80;99.90;;;;;;5053379;28;20191;-57
2023/03/22 04:12:01;;;;;;;8.75;4.13;;;10.80;99.90;;;;;;5053545;28;20187;-58
2023/03/22 04:14:27;;;;;;;8.30;3.70;;;10.80;99.90;;;;;;5053235;28;20241;-58
2023/03/22 04:16:54;;;;;;;7.95;3.63;;;10.80;99.90;;;;;;5053247;28;20656;-58
2023/03/22 04:19:20;;;;;;;8.50;4.00;;;10.80;99.90;;;;;;5053097;28;20186;-59
2023/03/22 04:21:46;;;;;;;11.52;4.30;;;10.80;99.90;;;;;;5053013;28;20559;-58
2023/03/22 04:24:13;;;;;;;10.18;4.10;;;10.80;99.90;;;;;;5052900;28;20257;-58
2023/03/22 04:26:39;;;;;;;8.38;3.08;;;10.80;99.90;;;;;;5053270;28;20565;-58
2023/03/22 04:29:05;;;;;;;10.70;3.95;;;10.90;99.90;;;;;;5052996;28;20237;-58
2023/03/22 04:31:32;;;;;;;7.82;3.25;;;10.90;99.90;;;;;;5053074;28;20180;-57
2023/03/22 04:33:59;;;;;;;11.52;3.50;;;10.80;99.90;;;;;;5052917;28;20217;-58
2023/03/22 04:36:29;;;;;;;12.90;4.00;;;10.80;99.90;;;;;;5052891;28;20273;-58
2023/03/22 04:38:55;;;;;;;8.77;3.15;;;10.80;99.90;;;;;;5053103;28;20193;-58
2023/03/22 04:41:21;;;;;;;5.35;3.25;;;10.90;99.90;;;;;;5053067;28;20172;-58
2023/03/22 04:43:49;;;;;;;7.90;3.30;;;10.80;99.90;;;;;;5051726;28;20175;-58
2023/03/22 04:46:16;;;;;;;9.65;3.20;;;10.70;99.90;;;;;;5052890;28;20179;-58
2023/03/22 04:48:42;;;;;;;8.13;3.17;;;10.80;99.90;;;;;;5052826;28;20199;-58
2023/03/22 04:51:09;;;;;;;11.55;2.90;;;10.80;99.90;;;;;;5054027;28;20189;-59
2023/03/22 04:53:39;;;;;;;8.48;2.80;;;10.80;99.90;;;;;;5056798;28;20175;-58
2023/03/22 04:56:08;;;;;;;6.55;2.58;;;10.80;99.90;;;;;;5057000;28;20175;-58
2023/03/22 04:58:36;;;;;;;7.93;2.78;;;10.80;99.90;;;;;;5056769;28;20636;-58
2023/03/22 05:01:02;;;;;;;8.98;2.92;;;10.70;99.90;;;;;;5056819;28;20180;-58
2023/03/22 05:03:28;;;;;;;7.60;2.65;;;10.70;99.90;;;;;;5056627;28;20186;-58
2023/03/22 05:05:56;;;;;;;10.23;3.10;;;10.70;99.90;;;;;;5056855;28;20175;-58
2023/03/22 05:08:25;;;;;;;6.88;2.60;;;10.70;99.90;;;;;;5056768;28;20238;-58
2023/03/22 05:10:52;;;;;;;8.88;3.15;;;10.70;99.90;;;;;;5056541;28;20172;-58
2023/03/22 05:13:19;;;;;;;8.73;2.60;;;10.70;99.90;;;;;;5056915;28;20540;-57
2023/03/22 05:15:46;;;;;;;4.93;2.42;;;10.70;99.90;;;;;;5056410;28;20179;-58
2023/03/22 05:18:15;;;;;;;7.57;2.88;;;10.70;99.90;;;;;;5056296;28;20664;-58
2023/03/22 05:20:42;;;;;;;7.47;3.13;;;10.70;99.90;;;;;;5056761;28;20220;-58
2023/03/22 05:23:08;;;;;;;6.57;2.75;;;10.70;99.90;;;;;;5055870;28;20223;-58
2023/03/22 05:25:35;;;;;;;7.78;2.50;;;10.70;99.90;;;;;;5056618;28;20191;-58
2023/03/22 05:28:01;;;;;;;7.90;2.50;;;10.70;99.90;;;;;;5056102;28;20253;-58
2023/03/22 05:30:28;;;;;;;7.85;2.65;;;10.80;99.90;;;;;;5056096;28;20186;-58
2023/03/22 05:33:02;;;;;;;8.85;2.60;;;10.70;99.90;;;;;;5056327;28;20644;-58
2023/03/22 05:35:32;;;;;;;45.30;5.03;;;10.80;99.90;;;;;;5056029;28;20243;-58
2023/03/22 05:37:57;;;;;;;10.07;2.45;;;10.80;99.90;;;;;;5056166;28;20176;-58
2023/03/22 05:40:26;;;;;;;14.18;2.97;;;10.80;99.90;;;;;;5055445;28;20183;-58
2023/03/22 05:42:53;;;;;;;8.30;2.50;;;10.80;99.90;;;;;;5055972;28;20178;-58
2023/03/22 05:45:20;;;;;;;10.02;2.60;;;10.90;99.90;;;;;;5055514;28;20179;-58
2023/03/22 05:47:46;;;;;;;9.50;2.20;;;10.80;99.90;;;;;;5055847;28;20174;-59
2023/03/22 05:50:15;;;;;;;9.57;2.45;;;10.80;99.90;;;;;;5055731;28;20260;-58
2023/03/22 05:52:41;;;;;;;9.82;2.40;;;10.70;99.90;;;;;;5055884;28;20198;-58
2023/03/22 05:55:08;;;;;;;6.15;2.30;;;10.80;99.90;;;;;;5055793;28;20298;-57
2023/03/22 05:57:34;;;;;;;9.10;2.67;;;10.80;99.90;;;;;;5055575;28;20190;-58
2023/03/22 06:00:00;;;;;;;10.00;2.88;;;10.70;99.90;;;;;;5055818;28;20282;-58
2023/03/22 06:02:26;;;;;;;8.85;2.38;;;10.70;99.90;;;;;;5054768;28;20658;-58
2023/03/22 06:04:52;;;;;;;10.88;3.00;;;10.70;99.90;;;;;;5055686;28;20229;-58
2023/03/22 06:07:18;;;;;;;10.93;3.28;;;10.80;99.90;;;;;;5055612;28;20171;-58
2023/03/22 06:09:44;;;;;;;9.35;2.83;;;10.70;99.90;;;;;;5055493;28;20676;-59
2023/03/22 06:12:11;;;;;;;9.07;2.47;;;10.70;99.90;;;;;;5055477;28;20187;-58
2023/03/22 06:14:36;;;;;;;8.68;2.40;;;10.80;99.90;;;;;;5055304;28;20179;-58
2023/03/22 06:17:02;;;;;;;7.78;2.75;;;10.80;99.90;;;;;;5055525;28;20179;-58
2023/03/22 06:19:28;;;;;;;11.45;2.92;;;10.70;99.90;;;;;;5055404;28;20177;-58
2023/03/22 06:21:54;;;;;;;9.48;2.83;;;10.80;99.90;;;;;;5055330;28;20180;-58
2023/03/22 06:24:20;;;;;;;8.48;3.00;;;10.80;99.90;;;;;;5054892;28;20365;-59
2023/03/22 06:26:46;;;;;;;8.45;3.17;;;10.80;99.90;;;;;;5055108;28;20533;-58
2023/03/22 06:29:12;;;;;;;9.35;3.28;;;10.80;99.90;;;;;;5054778;28;20207;-58
2023/03/22 06:31:37;;;;;;;9.13;3.05;;;10.80;99.90;;;;;;5055154;28;20621;-58
2023/03/22 06:34:04;;;;;;;7.40;2.75;;;10.90;99.90;;;;;;5054934;28;20180;-58
2023/03/22 06:36:30;;;;;;;7.95;2.78;;;10.90;99.90;;;;;;5054961;28;20175;-58
2023/03/22 06:38:59;;;;;;;5.50;2.80;;;10.80;99.90;;;;;;5054964;28;20236;-58
2023/03/22 06:41:26;;;;;;;9.90;2.90;;;10.80;99.90;;;;;;5054842;28;20186;-58
2023/03/22 06:43:51;;;;;;;11.43;3.00;;;11.00;99.90;;;;;;5055060;28;20690;-58
2023/03/22 06:46:17;;;;;;;6.90;2.70;;;11.00;99.90;;;;;;5054980;28;20179;-58
2023/03/22 06:48:42;;;;;;;8.27;2.95;;;10.90;99.90;;;;;;5054815;28;20215;-58
2023/03/22 06:51:08;;;;;;;12.45;3.30;;;11.00;99.90;;;;;;5054812;28;20545;-58
2023/03/22 06:53:34;;;;;;;8.38;2.63;;;11.10;99.90;;;;;;5054677;28;20175;-58
2023/03/22 06:56:00;;;;;;;9.82;2.95;;;11.20;99.90;;;;;;5055090;28;20230;-58
2023/03/22 06:58:25;;;;;;;8.82;3.05;;;11.20;99.90;;;;;;5054560;28;20711;-59
2023/03/22 07:00:51;;;;;;;11.07;2.92;;;11.30;99.90;;;;;;5054659;28;20381;-58
2023/03/22 07:03:17;;;;;;;9.73;3.00;;;11.40;99.90;;;;;;5054765;28;20237;-58
2023/03/22 07:05:43;;;;;;;9.50;2.55;;;11.40;99.90;;;;;;5054409;28;20191;-58
2023/03/22 07:08:09;;;;;;;10.05;2.80;;;11.40;99.90;;;;;;5054343;28;20199;-58
2023/03/22 07:10:35;;;;;;;8.02;2.45;;;11.50;99.90;;;;;;5054360;28;20182;-58
2023/03/22 07:13:02;;;;;;;14.38;3.42;;;11.60;99.90;;;;;;5054205;28;20247;-58
2023/03/22 07:15:29;;;;;;;8.75;3.03;;;11.70;99.90;;;;;;5053461;28;20624;-58
2023/03/22 07:17:55;;;;;;;8.95;2.50;;;11.70;99.90;;;;;;5054162;28;20182;-58
2023/03/22 07:20:21;;;;;;;9.85;2.75;;;11.70;99.90;;;;;;5054247;28;20171;-58
2023/03/22 07:22:49;;;;;;;7.60;2.65;;;11.60;99.90;;;;;;5053959;28;20668;-58
2023/03/22 07:25:15;;;;;;;8.10;2.17;;;11.70;99.90;;;;;;5053884;28;20174;-58
2023/03/22 07:27:41;;;;;;;9.27;2.42;;;11.70;99.90;;;;;;5053810;28;20175;-58
2023/03/22 07:30:07;;;;;;;10.18;2.47;;;11.80;99.90;;;;;;5054069;28;20230;-58
2023/03/22 07:32:33;;;;;;;8.13;2.55;;;11.80;99.90;;;;;;5053861;28;20603;-58
2023/03/22 07:34:59;;;;;;;6.78;2.38;;;11.80;99.90;;;;;;5053875;28;20262;-58
2023/03/22 07:37:24;;;;;;;7.28;2.75;;;11.90;99.90;;;;;;5053770;28;20217;-58
2023/03/22 07:39:50;;;;;;;7.15;2.50;;;12.00;99.90;;;;;;5053732;28;20202;-58
2023/03/22 07:42:16;;;;;;;8.40;2.47;;;12.10;99.90;;;;;;5053638;28;20651;-58
2023/03/22 07:44:41;;;;;;;11.10;2.83;;;12.30;99.90;;;;;;5053888;28;20175;-58
2023/03/22 07:47:07;;;;;;;8.35;2.30;;;12.40;99.90;;;;;;5053687;28;20187;-58
2023/03/22 07:49:33;;;;;;;9.60;2.75;;;12.40;99.90;;;;;;5053576;28;20207;-58
2023/03/22 07:51:59;;;;;;;7.38;2.40;;;12.50;99.90;;;;;;5053568;28;20213;-58
2023/03/22 07:54:24;;;;;;;8.30;2.47;;;12.40;99.90;;;;;;5053393;28;20233;-59
2023/03/22 07:56:50;;;;;;;8.65;2.35;;;12.30;99.90;;;;;;5053320;28;20175;-58
2023/03/22 07:59:16;;;;;;;10.48;2.60;;;12.40;99.90;;;;;;5053615;28;20262;-58
2023/03/22 08:01:43;;;;;;;10.93;2.58;;;12.30;99.90;;;;;;5053476;28;20183;-58
2023/03/22 08:04:09;;;;;;;9.40;2.83;;;12.30;99.90;;;;;;5053530;28;20167;-59
2023/03/22 08:06:35;;;;;;;10.70;3.00;;;12.20;99.90;;;;;;5053410;28;20233;-59
2023/03/22 08:09:03;;;;;;;9.18;2.60;;;12.20;99.90;;;;;;5053045;28;20676;-58
2023/03/22 08:11:29;;;;;;;7.53;2.30;;;12.20;99.90;;;;;;5053428;28;20206;-58
2023/03/22 08:13:55;;;;;;;9.60;2.35;;;12.20;99.90;;;;;;5053312;28;20214;-58
2023/03/22 08:16:21;;;;;;;6.03;2.33;;;12.10;99.90;;;;;;5053248;28;20224;-58
2023/03/22 08:18:48;;;;;;;7.25;2.90;;;12.10;99.90;;;;;;5053227;28;20572;-58
2023/03/22 08:21:14;;;;;;;8.48;2.90;;;12.10;99.90;;;;;;5053206;28;20241;-58
2023/03/22 08:23:40;;;;;;;9.48;2.05;;;12.20;99.90;;;;;;5052662;28;20238;-58
2023/03/22 08:26:06;;;;;;;9.73;2.60;;;12.20;99.90;;;;;;5053174;28;20175;-58
2023/03/22 08:28:31;;;;;;;7.57;2.80;;;12.20;99.90;;;;;;5053128;28;20689;-58
2023/03/22 08:30:57;;;;;;;8.20;2.40;;;12.20;99.90;;;;;;5052904;28;20172;-58
2023/03/22 08:33:24;;;;;;;12.40;2.85;;;12.30;99.90;;;;;;5053055;28;20179;-58
2023/03/22 08:35:50;;;;;;;8.32;2.45;;;12.30;99.90;;;;;;5052930;28;20229;-58
2023/03/22 08:38:16;;;;;;;8.35;2.38;;;12.30;99.90;;;;;;5052896;28;20608;-58
2023/03/22 08:40:45;;;;;;;9.27;2.90;;;12.30;99.90;;;;;;5053133;28;20682;-58
2023/03/22 08:43:11;;;;;;;6.97;2.45;;;12.30;99.90;;;;;;5052887;28;20179;-58
2023/03/22 08:45:37;;;;;;;9.73;2.88;;;12.40;99.90;;;;;;5053042;28;20629;-58
2023/03/22 08:48:03;;;;;;;6.68;2.45;;;12.60;99.90;;;;;;5052987;28;20218;-58
2023/03/22 08:50:29;;;;;;;7.28;2.35;;;12.50;99.90;;;;;;5052821;28;20178;-58
2023/03/22 08:52:55;;;;;;;9.02;2.22;;;12.60;99.90;;;;;;5052724;28;20258;-58
2023/03/22 08:55:21;;;;;;;6.85;2.45;;;12.70;99.90;;;;;;5053053;28;20262;-58
2023/03/22 08:57:49;;;;;;;7.07;2.78;;;12.80;99.90;;;;;;5052837;28;20265;-58
2023/03/22 09:00:16;;;;;;;7.78;2.20;;;12.70;99.90;;;;;;5052837;28;20187;-58
2023/03/22 09:02:42;;;;;;;11.63;2.53;;;12.70;99.90;;;;;;5052707;28;20240;-58
2023/03/22 09:05:08;;;;;;;9.93;2.88;;;12.80;99.90;;;;;;5052717;28;20168;-59
2023/03/22 09:07:34;;;;;;;7.93;2.90;;;12.80;99.90;;;;;;5052878;28;20175;-58
2023/03/22 09:10:00;;;;;;;5.93;2.58;;;12.70;99.90;;;;;;5052728;28;20203;-58
2023/03/22 09:12:26;;;;;;;9.90;2.85;;;12.70;99.90;;;;;;5052711;28;20518;-58
2023/03/22 09:14:52;;;;;;;9.90;3.53;;;12.70;99.90;;;;;;5052704;28;20203;-58
2023/03/22 09:17:18;;;;;;;9.40;2.72;;;12.70;99.90;;;;;;5052576;28;20601;-58
2023/03/22 09:19:46;;;;;;;9.35;2.47;;;12.80;99.90;;;;;;5052563;28;20266;-58
2023/03/22 09:22:12;;;;;;;9.25;2.78;;;12.70;99.90;;;;;;5052476;28;20163;-58
2023/03/22 09:24:38;;;;;;;7.47;2.60;;;12.70;99.90;;;;;;5052903;28;20251;-58
2023/03/22 09:27:04;;;;;;;8.98;3.13;;;12.60;99.90;;;;;;5052638;28;20265;-58
2023/03/22 09:29:30;;;;;;;8.07;2.53;;;12.50;99.90;;;;;;5052467;28;20290;-58
2023/03/22 09:31:56;;;;;;;8.63;2.97;;;12.40;99.90;;;;;;5051228;28;20237;-59
2023/03/22 09:34:21;;;;;;;6.93;2.90;;;12.30;99.90;;;;;;5052330;28;20544;-58
2023/03/22 09:36:47;;;;;;;6.45;2.45;;;12.30;99.90;;;;;;5052247;28;20177;-58
2023/03/22 09:39:15;;;;;;;9.60;2.55;;;12.30;99.90;;;;;;5055318;28;20188;-59
2023/03/22 09:42:03;;;;;;;7.57;2.63;;;12.30;99.90;;;;;;5056114;28;20167;-58
2023/03/22 09:44:42;;;;;;;6.32;2.28;;;12.40;99.90;;;;;;5056140;28;20210;-58
2023/03/22 09:47:20;;;;;;;7.75;2.15;;;12.50;99.90;;;;;;5055755;28;20254;-59
2023/03/22 09:49:49;;;;;;;9.02;2.58;;;12.60;99.90;;;;;;5055968;28;20541;-59
2023/03/22 09:52:16;;;;;;;6.15;2.47;;;12.60;99.90;;;;;;5055894;28;20182;-58
2023/03/22 09:54:44;;;;;;;6.13;2.25;;;12.50;99.90;;;;;;5055738;28;20567;-58
2023/03/22 09:57:33;;;;;;;7.07;2.50;;;12.40;99.90;;;;;;5055634;28;20244;-58
2023/03/22 10:00:10;;;;;;;7.95;2.33;;;12.50;99.90;;;;;;5055891;28;20171;-58
2023/03/22 10:03:05;;;;;;;7.47;2.40;;;12.50;99.90;;;;;;5055627;28;20186;-59
2023/03/22 10:05:36;;;;;;;8.15;1.98;;;12.50;99.90;;;;;;5055630;28;20199;-58
2023/03/22 10:08:34;;;;;;;4.68;2.30;;;12.40;99.90;;;;;;5055418;28;20176;-59
2023/03/22 10:11:00;;;;;;;5.15;2.30;;;12.30;99.90;;;;;;5055595;28;20179;-58
2023/03/22 10:13:44;;;;;;;6.68;2.20;;;12.20;99.90;;;;;;5055458;28;20217;-58
2023/03/22 10:16:25;;;;;;;7.63;2.22;;;12.30;99.90;;;;;;5055403;28;20171;-58
2023/03/22 10:18:54;;;;;;;5.75;2.47;;;12.30;99.90;;;;;;5055304;28;20175;-58
2023/03/22 10:21:20;;;;;;;10.48;2.60;;;12.20;99.90;;;;;;5055209;28;20277;-58
2023/03/22 10:24:03;;;;;;;9.13;2.78;;;12.30;99.90;;;;;;5055013;28;20223;-58
2023/03/22 10:26:43;;;;;;;5.40;2.20;;;12.40;99.90;;;;;;5055233;28;20167;-58
2023/03/22 10:29:11;;;;;;;6.80;1.90;;;12.40;99.90;;;;;;5055096;28;20257;-59
2023/03/22 10:31:41;;;;;;;8.55;2.75;;;12.50;99.90;;;;;;5054771;28;20172;-58
2023/03/22 10:34:18;;;;;;;6.68;2.40;;;12.60;99.90;;;;;;5055262;28;20528;-58
2023/03/22 10:36:46;;;;;;;5.00;2.22;;;12.70;99.90;;;;;;5054943;28;20253;-59
2023/03/22 10:39:32;;;;;;;7.10;2.67;;;12.70;99.90;;;;;;5054819;28;20182;-59
2023/03/22 10:42:02;;;;;;;5.65;1.90;;;12.60;99.90;;;;;;5055011;28;20686;-59
2023/03/22 10:44:33;;;;;;;5.15;2.42;;;12.50;99.90;;;;;;5054883;28;20207;-58
2023/03/22 10:47:06;;;;;;;4.88;2.38;;;12.50;99.90;;;;;;5054806;28;20194;-58
2023/03/22 10:49:37;;;;;;;4.15;2.00;;;12.40;99.90;;;;;;5054486;28;20218;-59
2023/03/22 10:52:17;;;;;;;7.05;2.58;;;12.40;99.90;;;;;;5054608;28;20633;-58
2023/03/22 10:54:42;;;;;;;6.35;2.30;;;12.40;99.90;;;;;;5054810;28;20175;-58
2023/03/22 10:57:08;;;;;;;4.65;2.10;;;12.50;99.90;;;;;;5054552;28;20176;-59
2023/03/22 10:59:46;;;;;;;6.95;2.70;;;12.50;99.90;;;;;;5054472;28;20175;-59
2023/03/22 11:02:27;;;;;;;4.72;2.25;;;12.40;99.90;;;;;;5054327;28;20174;-58
2023/03/22 11:05:02;;;;;;;5.82;2.17;;;12.60;99.90;;;;;;5054512;28;20629;-58
2023/03/22 11:07:41;;;;;;;5.75;2.20;;;12.70;99.90;;;;;;5054448;28;20181;-58
2023/03/22 11:10:07;;;;;;;4.85;1.75;;;12.80;99.90;;;;;;5054347;28;20199;-58
2023/03/22 11:12:34;;;;;;;4.18;1.90;;;12.80;99.90;;;;;;5054216;28;20175;-59
2023/03/22 11:14:59;;;;;;;6.07;2.40;;;13.00;99.90;;;;;;5054181;28;20175;-58
2023/03/22 11:17:25;;;;;;;5.43;1.90;;;13.00;99.90;;;;;;5054402;28;20583;-58
2023/03/22 11:19:52;;;;;;;4.05;2.00;;;13.10;99.90;;;;;;5053079;28;20179;-58
2023/03/22 11:22:30;;;;;;;3.65;1.90;;;13.10;99.90;;;;;;5054188;28;20176;-58
2023/03/22 11:24:57;;;;;;;4.60;1.67;;;13.10;99.90;;;;;;5054096;28;20224;-59
2023/03/22 11:27:32;;;;;;;5.57;1.83;;;13.20;99.90;;;;;;5053859;28;20168;-58
2023/03/22 11:30:08;;;;;;;6.13;1.95;;;13.30;99.90;;;;;;5053986;28;20210;-59
2023/03/22 11:32:38;;;;;;;5.72;2.10;;;13.50;99.90;;;;;;5053009;28;20219;-58
2023/03/22 11:35:37;;;;;;;5.65;2.00;;;13.40;99.90;;;;;;5053866;28;20171;-58
2023/03/22 11:38:03;;;;;;;5.35;2.25;;;13.40;99.90;;;;;;5031142;28;20187;-58
2023/03/22 11:40:32;;;;;;;7.43;2.00;;;13.40;99.90;;;;;;5053853;28;20684;-58
2023/03/22 11:43:19;;;;;;;4.43;1.98;;;13.30;99.90;;;;;;5054081;28;20204;-58
2023/03/22 11:45:49;;;;;;;7.53;2.42;;;13.30;99.90;;;;;;5053675;28;20178;-59
2023/03/22 11:48:20;;;;;;;4.75;1.92;;;13.50;99.90;;;;;;5053369;28;20249;-58
2023/03/22 11:50:46;;;;;;;6.18;2.25;;;13.40;99.90;;;;;;5053794;28;20172;-58
2023/03/22 11:53:16;;;;;;;5.10;1.80;;;13.40;99.90;;;;;;5053740;28;20175;-58
2023/03/22 11:55:42;;;;;;;5.03;2.10;;;13.40;99.90;;;;;;5053498;28;20220;-58
2023/03/22 11:58:25;;;;;;;4.70;2.22;;;13.20;99.90;;;;;;5053429;28;20175;-59
2023/03/22 12:00:59;;;;;;;5.55;2.17;;;13.10;99.90;;;;;;5053122;28;20238;-58
2023/03/22 12:03:33;;;;;;;4.28;2.30;;;13.20;99.90;;;;;;5053495;28;20174;-58
2023/03/22 12:06:04;;;;;;;7.65;2.42;;;13.10;99.90;;;;;;5053510;28;20186;-58
2023/03/22 12:08:48;;;;;;;5.10;2.13;;;13.00;99.90;;;;;;5053255;28;20309;-58
2023/03/22 12:11:21;;;;;;;6.85;2.90;;;13.00;99.90;;;;;;5053493;28;20176;-58
2023/03/22 12:13:59;;;;;;;5.85;2.38;;;12.90;99.90;;;;;;5053220;28;20615;-58
2023/03/22 12:16:31;;;;;;;4.95;2.00;;;12.90;99.90;;;;;;5053263;28;20175;-59
2023/03/22 12:19:18;;;;;;;5.55;2.17;;;12.90;99.90;;;;;;5053258;28;20651;-58
2023/03/22 12:21:45;;;;;;;4.88;2.25;;;12.90;99.90;;;;;;5053103;28;20171;-59
2023/03/22 12:24:27;;;;;;;5.90;2.25;;;12.80;99.90;;;;;;5053205;28;20227;-59
2023/03/22 12:26:58;;;;;;;5.88;2.40;;;12.90;99.90;;;;;;5053235;28;20186;-58
2023/03/22 12:29:26;;;;;;;4.80;2.13;;;13.00;99.90;;;;;;5053078;28;20187;-61
2023/03/22 12:32:33;;;;;;;7.13;2.67;;;13.00;99.90;;;;;;5052891;28;20694;-58
2023/03/22 12:34:59;;;;;;;4.95;2.35;;;13.10;99.90;;;;;;5011107;28;20176;-58
2023/03/22 12:37:33;;;;;;;5.47;2.08;;;13.10;99.90;;;;;;5044126;28;20580;-58
2023/03/22 12:40:25;;;;;;;6.35;2.40;;;13.10;99.90;;;;;;5053011;28;20540;-58
2023/03/22 12:43:10;;;;;;;3.72;1.95;;;13.20;99.90;;;;;;5052636;28;20234;-58
2023/03/22 12:45:46;;;;;;;5.55;2.13;;;13.20;99.90;;;;;;5052983;28;20167;-58
2023/03/22 12:48:15;;;;;;;4.28;2.22;;;13.20;99.90;;;;;;5052759;28;20175;-58
2023/03/22 12:50:56;;;;;;;5.82;2.28;;;13.20;99.90;;;;;;5052703;28;20179;-58
2023/03/22 12:53:27;;;;;;;3.50;2.15;;;13.20;99.90;;;;;;5052776;28;20551;-58
2023/03/22 12:55:54;;;;;;;4.20;2.00;;;13.20;99.90;;;;;;5052921;28;20168;-58
2023/03/22 12:58:22;;;;;;;3.45;2.13;;;13.10;99.90;;;;;;5052748;28;20190;-58